createdAt,value
2022-12-03T00:00:12.539Z,1021.02
2022-12-03T00:01:08.637Z,1020.98
2022-12-03T00:02:08.739Z,1020.97
2022-12-03T00:03:08.722Z,1020.97
2022-12-03T00:04:08.656Z,1020.95
2022-12-03T00:05:08.580Z,1020.92
2022-12-03T00:06:08.557Z,1020.91
2022-12-03T00:07:08.550Z,1020.93
2022-12-03T00:08:08.562Z,1020.98
2022-12-03T00:09:08.509Z,1020.92
2022-12-03T00:10:08.506Z,1020.95
2022-12-03T00:11:08.495Z,1020.93
2022-12-03T00:12:08.468Z,1020.88
2022-12-03T00:13:08.464Z,1020.90
2022-12-03T00:14:08.433Z,1020.90
2022-12-03T00:15:08.455Z,1020.95
2022-12-03T00:16:08.471Z,1020.93
2022-12-03T00:17:08.423Z,1020.94
2022-12-03T00:18:08.396Z,1020.88
2022-12-03T00:19:08.388Z,1020.93
2022-12-03T00:20:08.361Z,1020.92
2022-12-03T00:21:08.379Z,1020.92
2022-12-03T00:22:08.337Z,1020.89
2022-12-03T00:23:08.359Z,1020.88
2022-12-03T00:24:08.345Z,1020.89
2022-12-03T00:25:08.331Z,1020.88
2022-12-03T00:26:08.274Z,1020.87
2022-12-03T00:27:08.275Z,1020.83
2022-12-03T00:28:08.267Z,1020.87
2022-12-03T00:29:08.253Z,1020.87
2022-12-03T00:30:08.234Z,1020.87
2022-12-03T00:31:08.289Z,1020.87
2022-12-03T00:32:08.213Z,1020.87
2022-12-03T00:33:08.214Z,1020.90
2022-12-03T00:34:08.188Z,1020.80
2022-12-03T00:35:08.200Z,1020.87
2022-12-03T00:36:08.206Z,1020.89
2022-12-03T00:37:08.155Z,1020.89
2022-12-03T00:38:08.141Z,1020.84
2022-12-03T00:39:08.144Z,1020.90
2022-12-03T00:40:08.117Z,1020.87
2022-12-03T00:41:08.113Z,1020.82
2022-12-03T00:42:08.095Z,1020.78
2022-12-03T00:43:08.083Z,1020.83
2022-12-03T00:44:08.063Z,1020.83
2022-12-03T00:45:08.062Z,1020.80
2022-12-03T00:46:08.047Z,1020.78
2022-12-03T00:47:08.122Z,1020.74
2022-12-03T00:48:08.013Z,1020.80
2022-12-03T00:49:08.014Z,1020.79
2022-12-03T00:50:07.986Z,1020.77
2022-12-03T00:51:07.986Z,1020.79
2022-12-03T00:52:07.973Z,1020.68
2022-12-03T00:53:07.966Z,1020.73
2022-12-03T00:54:07.935Z,1020.68
2022-12-03T00:55:07.970Z,1020.72
2022-12-03T00:56:07.913Z,1020.74
2022-12-03T00:57:07.891Z,1020.73
2022-12-03T00:58:07.903Z,1020.71
2022-12-03T00:59:07.882Z,1020.76
2022-12-03T01:00:07.861Z,1020.78
2022-12-03T01:01:07.841Z,1020.70
2022-12-03T01:02:07.883Z,1020.73
2022-12-03T01:03:07.812Z,1020.75
2022-12-03T01:04:07.861Z,1020.79
2022-12-03T01:05:07.839Z,1020.77
2022-12-03T01:06:07.809Z,1020.70
2022-12-03T01:07:07.767Z,1020.73
2022-12-03T01:08:07.799Z,1020.77
2022-12-03T01:09:07.755Z,1020.79
2022-12-03T01:10:07.733Z,1020.79
2022-12-03T01:11:07.715Z,1020.75
2022-12-03T01:12:07.717Z,1020.81
2022-12-03T01:13:07.690Z,1020.74
2022-12-03T01:14:07.681Z,1020.79
2022-12-03T01:15:07.674Z,1020.73
2022-12-03T01:16:07.715Z,1020.79
2022-12-03T01:17:07.654Z,1020.80
2022-12-03T01:18:07.631Z,1020.77
2022-12-03T01:19:07.631Z,1020.77
2022-12-03T01:20:07.632Z,1020.83
2022-12-03T01:21:07.587Z,1020.84
2022-12-03T01:22:07.593Z,1020.82
2022-12-03T01:23:07.565Z,1020.74
2022-12-03T01:24:07.568Z,1020.81
2022-12-03T01:25:07.554Z,1020.80
2022-12-03T01:26:07.549Z,1020.82
2022-12-03T01:27:07.526Z,1020.86
2022-12-03T01:28:07.526Z,1020.78
2022-12-03T01:29:07.483Z,1020.77
2022-12-03T01:30:07.479Z,1020.78
2022-12-03T01:31:07.553Z,1020.82
2022-12-03T01:32:07.465Z,1020.77
2022-12-03T01:33:07.444Z,1020.80
2022-12-03T01:34:07.424Z,1020.80
2022-12-03T01:35:07.425Z,1020.80
2022-12-03T01:36:07.414Z,1020.75
2022-12-03T01:37:07.387Z,1020.75
2022-12-03T01:38:07.405Z,1020.71
2022-12-03T01:39:07.365Z,1020.75
2022-12-03T01:40:07.365Z,1020.80
2022-12-03T01:41:11.655Z,1020.79
2022-12-03T01:42:07.345Z,1020.79
2022-12-03T01:43:07.330Z,1020.81
2022-12-03T01:44:07.325Z,1020.80
2022-12-03T01:45:07.300Z,1020.78
2022-12-03T01:46:07.365Z,1020.74
2022-12-03T01:47:07.363Z,1020.81
2022-12-03T01:48:07.243Z,1020.73
2022-12-03T01:49:07.305Z,1020.76
2022-12-03T01:50:07.229Z,1020.73
2022-12-03T01:51:07.195Z,1020.74
2022-12-03T01:52:07.195Z,1020.71
2022-12-03T01:53:07.207Z,1020.69
2022-12-03T01:54:07.185Z,1020.72
2022-12-03T01:55:07.166Z,1020.68
2022-12-03T01:56:07.156Z,1020.65
2022-12-03T01:57:07.128Z,1020.66
2022-12-03T01:58:07.156Z,1020.63
2022-12-03T01:59:07.114Z,1020.69
2022-12-03T02:00:07.113Z,1020.69
2022-12-03T02:01:07.083Z,1020.63
2022-12-03T02:02:07.119Z,1020.68
2022-12-03T02:03:07.053Z,1020.61
2022-12-03T02:04:07.140Z,1020.64
2022-12-03T02:05:07.028Z,1020.68
2022-12-03T02:06:07.036Z,1020.73
2022-12-03T02:07:07.016Z,1020.66
2022-12-03T02:08:07.107Z,1020.67
2022-12-03T02:09:06.974Z,1020.60
2022-12-03T02:10:06.965Z,1020.63
2022-12-03T02:11:06.944Z,1020.68
2022-12-03T02:12:06.942Z,1020.66
2022-12-03T02:13:06.934Z,1020.62
2022-12-03T02:14:06.932Z,1020.63
2022-12-03T02:15:06.894Z,1020.59
2022-12-03T02:16:06.943Z,1020.56
2022-12-03T02:17:06.876Z,1020.65
2022-12-03T02:18:06.888Z,1020.65
2022-12-03T02:19:06.884Z,1020.65
2022-12-03T02:20:06.846Z,1020.55
2022-12-03T02:21:06.833Z,1020.61
2022-12-03T02:22:06.815Z,1020.60
2022-12-03T02:23:06.802Z,1020.62
2022-12-03T02:24:06.876Z,1020.57
2022-12-03T02:25:06.766Z,1020.61
2022-12-03T02:26:13.780Z,1020.62
2022-12-03T02:27:06.740Z,1020.61
2022-12-03T02:28:06.778Z,1020.63
2022-12-03T02:29:06.722Z,1020.67
2022-12-03T02:30:06.709Z,1020.62
2022-12-03T02:31:06.738Z,1020.66
2022-12-03T02:32:06.693Z,1020.67
2022-12-03T02:33:06.679Z,1020.69
2022-12-03T02:34:06.679Z,1020.69
2022-12-03T02:35:06.642Z,1020.70
2022-12-03T02:36:06.650Z,1020.69
2022-12-03T02:37:06.621Z,1020.64
2022-12-03T02:38:06.630Z,1020.65
2022-12-03T02:39:06.588Z,1020.69
2022-12-03T02:40:06.631Z,1020.66
2022-12-03T02:41:06.560Z,1020.66
2022-12-03T02:42:06.560Z,1020.67
2022-12-03T02:43:06.538Z,1020.64
2022-12-03T02:44:06.539Z,1020.65
2022-12-03T02:45:06.520Z,1020.64
2022-12-03T02:46:06.518Z,1020.66
2022-12-03T02:47:06.541Z,1020.67
2022-12-03T02:48:06.499Z,1020.63
2022-12-03T02:49:06.472Z,1020.60
2022-12-03T02:50:06.467Z,1020.66
2022-12-03T02:51:06.440Z,1020.55
2022-12-03T02:52:06.449Z,1020.63
2022-12-03T02:53:06.417Z,1020.60
2022-12-03T02:54:06.422Z,1020.66
2022-12-03T02:55:06.394Z,1020.62
2022-12-03T02:56:06.378Z,1020.65
2022-12-03T02:57:06.366Z,1020.64
2022-12-03T02:58:06.350Z,1020.55
2022-12-03T02:59:06.327Z,1020.64
2022-12-03T03:00:06.329Z,1020.60
2022-12-03T03:01:06.375Z,1020.61
2022-12-03T03:02:06.380Z,1020.65
2022-12-03T03:03:06.288Z,1020.68
2022-12-03T03:04:06.288Z,1020.62
2022-12-03T03:05:06.276Z,1020.61
2022-12-03T03:06:06.260Z,1020.59
2022-12-03T03:07:06.226Z,1020.70
2022-12-03T03:08:06.303Z,1020.65
2022-12-03T03:09:06.204Z,1020.66
2022-12-03T03:10:06.196Z,1020.65
2022-12-03T03:11:06.190Z,1020.58
2022-12-03T03:12:06.199Z,1020.60
2022-12-03T03:13:06.158Z,1020.63
2022-12-03T03:14:06.156Z,1020.64
2022-12-03T03:15:06.129Z,1020.56
2022-12-03T03:16:06.207Z,1020.60
2022-12-03T03:17:06.135Z,1020.54
2022-12-03T03:18:06.106Z,1020.56
2022-12-03T03:19:06.076Z,1020.53
2022-12-03T03:20:06.076Z,1020.53
2022-12-03T03:21:06.052Z,1020.60
2022-12-03T03:22:06.046Z,1020.56
2022-12-03T03:23:06.055Z,1020.47
2022-12-03T03:24:06.026Z,1020.51
2022-12-03T03:25:06.007Z,1020.55
2022-12-03T03:26:05.986Z,1020.47
2022-12-03T03:27:05.977Z,1020.56
2022-12-03T03:28:06.001Z,1020.53
2022-12-03T03:29:05.967Z,1020.46
2022-12-03T03:30:05.947Z,1020.48
2022-12-03T03:31:05.934Z,1020.47
2022-12-03T03:32:05.968Z,1020.46
2022-12-03T03:33:05.913Z,1020.40
2022-12-03T03:34:05.908Z,1020.44
2022-12-03T03:35:05.875Z,1020.40
2022-12-03T03:36:05.865Z,1020.43
2022-12-03T03:37:05.835Z,1020.46
2022-12-03T03:38:05.843Z,1020.45
2022-12-03T03:39:05.825Z,1020.38
2022-12-03T03:40:05.825Z,1020.44
2022-12-03T03:41:05.795Z,1020.45
2022-12-03T03:42:05.785Z,1020.46
2022-12-03T03:43:05.783Z,1020.47
2022-12-03T03:44:05.766Z,1020.44
2022-12-03T03:45:05.747Z,1020.42
2022-12-03T03:46:05.809Z,1020.42
2022-12-03T03:47:05.743Z,1020.41
2022-12-03T03:48:05.710Z,1020.39
2022-12-03T03:49:05.696Z,1020.31
2022-12-03T03:50:05.686Z,1020.40
2022-12-03T03:51:05.685Z,1020.33
2022-12-03T03:52:05.686Z,1020.35
2022-12-03T03:53:05.633Z,1020.28
2022-12-03T03:54:05.645Z,1020.28
2022-12-03T03:55:05.614Z,1020.32
2022-12-03T03:56:05.613Z,1020.26
2022-12-03T03:57:05.585Z,1020.30
2022-12-03T03:58:05.594Z,1020.27
2022-12-03T03:59:05.565Z,1020.35
2022-12-03T04:00:05.566Z,1020.26
2022-12-03T04:01:05.570Z,1020.29
2022-12-03T04:02:05.584Z,1020.28
2022-12-03T04:03:05.514Z,1020.25
2022-12-03T04:04:05.580Z,1020.26
2022-12-03T04:05:05.501Z,1020.24
2022-12-03T04:06:05.493Z,1020.25
2022-12-03T04:07:05.453Z,1020.23
2022-12-03T04:08:05.603Z,1020.20
2022-12-03T04:09:05.436Z,1020.20
2022-12-03T04:10:05.444Z,1020.23
2022-12-03T04:11:05.407Z,1020.18
2022-12-03T04:12:05.415Z,1020.15
2022-12-03T04:13:05.385Z,1020.14
2022-12-03T04:14:05.394Z,1020.13
2022-12-03T04:15:05.353Z,1020.10
2022-12-03T04:16:05.386Z,1020.14
2022-12-03T04:17:05.322Z,1020.13
2022-12-03T04:18:05.323Z,1020.11
2022-12-03T04:19:05.313Z,1020.10
2022-12-03T04:20:05.314Z,1020.13
2022-12-03T04:21:05.274Z,1020.12
2022-12-03T04:22:05.273Z,1020.12
2022-12-03T04:23:05.262Z,1020.12
2022-12-03T04:24:05.255Z,1020.17
2022-12-03T04:25:05.302Z,1020.07
2022-12-03T04:26:05.236Z,1020.09
2022-12-03T04:27:05.205Z,1020.12
2022-12-03T04:28:05.204Z,1020.14
2022-12-03T04:29:05.184Z,1020.05
2022-12-03T04:30:05.203Z,1020.13
2022-12-03T04:31:05.181Z,1020.07
2022-12-03T04:32:05.152Z,1020.13
2022-12-03T04:33:05.122Z,1020.11
2022-12-03T04:34:05.121Z,1020.07
2022-12-03T04:35:05.131Z,1020.11
2022-12-03T04:36:05.099Z,1020.07
2022-12-03T04:37:05.071Z,1020.10
2022-12-03T04:38:05.062Z,1020.07
2022-12-03T04:39:05.066Z,1020.04
2022-12-03T04:40:05.063Z,1020.06
2022-12-03T04:41:05.035Z,1020.04
2022-12-03T04:42:05.023Z,1020.05
2022-12-03T04:43:05.002Z,1020.05
2022-12-03T04:44:04.993Z,1020.07
2022-12-03T04:45:04.973Z,1019.98
2022-12-03T04:46:05.019Z,1020.04
2022-12-03T04:47:04.944Z,1020.01
2022-12-03T04:48:04.948Z,1019.99
2022-12-03T04:49:04.921Z,1020.01
2022-12-03T04:50:04.922Z,1020.03
2022-12-03T04:51:04.910Z,1020.04
2022-12-03T04:52:04.882Z,1020.03
2022-12-03T04:53:04.871Z,1020.08
2022-12-03T04:54:04.860Z,1020.06
2022-12-03T04:55:04.851Z,1019.98
2022-12-03T04:56:04.852Z,1020.08
2022-12-03T04:57:04.842Z,1020.00
2022-12-03T04:58:04.811Z,1020.03
2022-12-03T04:59:04.811Z,1019.97
2022-12-03T05:00:04.783Z,1020.04
2022-12-03T05:01:04.884Z,1020.02
2022-12-03T05:02:04.828Z,1020.00
2022-12-03T05:03:04.819Z,1019.97
2022-12-03T05:04:04.729Z,1019.94
2022-12-03T05:05:04.721Z,1019.97
2022-12-03T05:06:04.734Z,1019.93
2022-12-03T05:07:04.746Z,1019.93
2022-12-03T05:08:04.717Z,1020.01
2022-12-03T05:09:04.679Z,1019.94
2022-12-03T05:10:04.689Z,1019.94
2022-12-03T05:11:04.660Z,1019.98
2022-12-03T05:12:04.642Z,1019.97
2022-12-03T05:13:04.652Z,1019.91
2022-12-03T05:14:04.611Z,1019.98
2022-12-03T05:15:04.610Z,1019.86
2022-12-03T05:16:04.591Z,1019.85
2022-12-03T05:17:04.745Z,1019.94
2022-12-03T05:18:04.560Z,1019.86
2022-12-03T05:19:04.571Z,1019.86
2022-12-03T05:20:04.529Z,1019.89
2022-12-03T05:21:04.537Z,1019.82
2022-12-03T05:22:04.519Z,1019.80
2022-12-03T05:23:04.507Z,1019.81
2022-12-03T05:24:04.478Z,1019.77
2022-12-03T05:25:04.486Z,1019.87
2022-12-03T05:26:04.459Z,1019.84
2022-12-03T05:27:04.458Z,1019.78
2022-12-03T05:28:04.459Z,1019.84
2022-12-03T05:29:04.440Z,1019.88
2022-12-03T05:30:04.412Z,1019.86
2022-12-03T05:31:04.467Z,1019.80
2022-12-03T05:32:04.389Z,1019.89
2022-12-03T05:33:04.397Z,1019.85
2022-12-03T05:34:04.361Z,1019.84
2022-12-03T05:35:04.357Z,1019.86
2022-12-03T05:36:04.332Z,1019.90
2022-12-03T05:37:04.328Z,1019.85
2022-12-03T05:38:04.309Z,1019.84
2022-12-03T05:39:04.327Z,1019.89
2022-12-03T05:40:04.281Z,1019.87
2022-12-03T05:41:04.279Z,1019.94
2022-12-03T05:42:04.259Z,1019.82
2022-12-03T05:43:04.249Z,1019.87
2022-12-03T05:44:04.229Z,1019.90
2022-12-03T05:45:04.237Z,1019.88
2022-12-03T05:46:04.274Z,1019.83
2022-12-03T05:47:04.198Z,1019.84
2022-12-03T05:48:04.177Z,1019.84
2022-12-03T05:49:04.174Z,1019.84
2022-12-03T05:50:04.196Z,1019.83
2022-12-03T05:51:04.148Z,1019.81
2022-12-03T05:52:04.146Z,1019.82
2022-12-03T05:53:04.120Z,1019.84
2022-12-03T05:54:04.107Z,1019.79
2022-12-03T05:55:04.116Z,1019.83
2022-12-03T05:56:04.128Z,1019.78
2022-12-03T05:57:04.083Z,1019.79
2022-12-03T05:58:04.050Z,1019.79
2022-12-03T05:59:04.048Z,1019.83
2022-12-03T06:00:04.029Z,1019.78
2022-12-03T06:01:04.020Z,1019.73
2022-12-03T06:02:04.043Z,1019.75
2022-12-03T06:03:04.085Z,1019.83
2022-12-03T06:04:04.054Z,1019.77
2022-12-03T06:05:03.985Z,1019.80
2022-12-03T06:06:03.955Z,1019.80
2022-12-03T06:07:03.945Z,1019.76
2022-12-03T06:08:03.994Z,1019.79
2022-12-03T06:09:03.938Z,1019.75
2022-12-03T06:10:03.898Z,1019.80
2022-12-03T06:11:03.911Z,1019.79
2022-12-03T06:12:03.876Z,1019.80
2022-12-03T06:13:03.877Z,1019.78
2022-12-03T06:14:03.853Z,1019.83
2022-12-03T06:15:03.847Z,1019.75
2022-12-03T06:16:03.873Z,1019.78
2022-12-03T06:17:03.824Z,1019.81
2022-12-03T06:18:03.785Z,1019.83
2022-12-03T06:19:03.786Z,1019.82
2022-12-03T06:20:03.766Z,1019.82
2022-12-03T06:21:03.755Z,1019.86
2022-12-03T06:22:03.735Z,1019.88
2022-12-03T06:23:03.746Z,1019.89
2022-12-03T06:24:03.717Z,1019.84
2022-12-03T06:25:07.033Z,1019.90
2022-12-03T06:26:03.688Z,1019.85
2022-12-03T06:27:03.707Z,1019.86
2022-12-03T06:28:03.667Z,1019.87
2022-12-03T06:29:03.676Z,1019.81
2022-12-03T06:30:03.706Z,1019.85
2022-12-03T06:31:03.708Z,1019.90
2022-12-03T06:32:03.614Z,1019.80
2022-12-03T06:33:03.615Z,1019.84
2022-12-03T06:34:03.594Z,1019.88
2022-12-03T06:35:03.575Z,1019.82
2022-12-03T06:36:03.576Z,1019.85
2022-12-03T06:37:03.557Z,1019.89
2022-12-03T06:38:03.557Z,1019.82
2022-12-03T06:39:03.527Z,1019.82
2022-12-03T06:40:03.515Z,1019.83
2022-12-03T06:41:03.517Z,1019.88
2022-12-03T06:42:03.485Z,1019.87
2022-12-03T06:43:03.497Z,1019.88
2022-12-03T06:44:03.475Z,1019.82
2022-12-03T06:45:03.462Z,1019.89
2022-12-03T06:46:03.471Z,1019.82
2022-12-03T06:47:03.481Z,1019.87
2022-12-03T06:48:03.406Z,1019.88
2022-12-03T06:49:03.416Z,1019.79
2022-12-03T06:50:03.385Z,1019.84
2022-12-03T06:51:03.378Z,1019.83
2022-12-03T06:52:03.361Z,1019.83
2022-12-03T06:53:03.355Z,1019.79
2022-12-03T06:54:03.339Z,1019.81
2022-12-03T06:55:03.347Z,1019.78
2022-12-03T06:56:03.304Z,1019.75
2022-12-03T06:57:03.305Z,1019.82
2022-12-03T06:58:03.274Z,1019.82
2022-12-03T06:59:03.273Z,1019.84
2022-12-03T07:00:03.255Z,1019.81
2022-12-03T07:01:03.262Z,1019.79
2022-12-03T07:02:03.287Z,1019.75
2022-12-03T07:03:03.362Z,1019.81
2022-12-03T07:04:03.367Z,1019.82
2022-12-03T07:05:03.201Z,1019.81
2022-12-03T07:06:03.193Z,1019.79
2022-12-03T07:07:03.194Z,1019.80
2022-12-03T07:08:03.242Z,1019.81
2022-12-03T07:09:03.188Z,1019.81
2022-12-03T07:10:03.144Z,1019.82
2022-12-03T07:11:03.134Z,1019.77
2022-12-03T07:12:03.147Z,1019.74
2022-12-03T07:13:03.097Z,1019.80
2022-12-03T07:14:05.469Z,1019.79
2022-12-03T07:15:03.072Z,1019.81
2022-12-03T07:16:03.128Z,1019.82
2022-12-03T07:17:03.043Z,1019.82
2022-12-03T07:18:03.032Z,1019.76
2022-12-03T07:19:03.014Z,1019.82
2022-12-03T07:20:03.001Z,1019.79
2022-12-03T07:21:03.024Z,1019.81
2022-12-03T07:22:02.975Z,1019.82
2022-12-03T07:23:02.983Z,1019.82
2022-12-03T07:24:02.954Z,1019.80
2022-12-03T07:25:02.952Z,1019.85
2022-12-03T07:26:02.924Z,1019.76
2022-12-03T07:27:02.936Z,1019.84
2022-12-03T07:28:02.902Z,1019.80
2022-12-03T07:29:02.889Z,1019.75
2022-12-03T07:30:02.861Z,1019.81
2022-12-03T07:31:02.966Z,1019.78
2022-12-03T07:32:02.844Z,1019.79
2022-12-03T07:33:02.929Z,1019.85
2022-12-03T07:34:02.811Z,1019.82
2022-12-03T07:35:02.835Z,1019.81
2022-12-03T07:36:02.795Z,1019.85
2022-12-03T07:37:02.803Z,1019.80
2022-12-03T07:38:02.784Z,1019.87
2022-12-03T07:39:02.789Z,1019.86
2022-12-03T07:40:02.743Z,1019.79
2022-12-03T07:41:02.810Z,1019.85
2022-12-03T07:42:02.726Z,1019.82
2022-12-03T07:43:02.912Z,1019.74
2022-12-03T07:44:02.705Z,1019.78
2022-12-03T07:45:02.691Z,1019.81
2022-12-03T07:46:02.663Z,1019.79
2022-12-03T07:47:02.760Z,1019.78
2022-12-03T07:48:02.705Z,1019.82
2022-12-03T07:49:02.629Z,1019.80
2022-12-03T07:50:02.633Z,1019.82
2022-12-03T07:51:02.602Z,1019.76
2022-12-03T07:52:02.594Z,1019.76
2022-12-03T07:53:02.569Z,1019.74
2022-12-03T07:54:02.598Z,1019.82
2022-12-03T07:55:02.545Z,1019.79
2022-12-03T07:56:02.549Z,1019.83
2022-12-03T07:57:02.522Z,1019.72
2022-12-03T07:58:02.522Z,1019.82
2022-12-03T07:59:02.510Z,1019.75
2022-12-03T08:00:02.492Z,1019.86
2022-12-03T08:01:02.592Z,1019.80
2022-12-03T08:02:02.560Z,1019.81
2022-12-03T08:03:02.451Z,1019.77
2022-12-03T08:04:02.442Z,1019.78
2022-12-03T08:05:02.436Z,1019.75
2022-12-03T08:06:02.420Z,1019.75
2022-12-03T08:07:02.410Z,1019.74
2022-12-03T08:08:02.436Z,1019.72
2022-12-03T08:09:02.367Z,1019.71
2022-12-03T08:10:02.359Z,1019.72
2022-12-03T08:11:02.343Z,1019.69
2022-12-03T08:12:02.349Z,1019.72
2022-12-03T08:13:02.317Z,1019.65
2022-12-03T08:14:02.318Z,1019.67
2022-12-03T08:15:02.290Z,1019.65
2022-12-03T08:16:02.329Z,1019.65
2022-12-03T08:17:02.272Z,1019.66
2022-12-03T08:18:02.271Z,1019.64
2022-12-03T08:19:02.258Z,1019.62
2022-12-03T08:20:02.246Z,1019.59
2022-12-03T08:21:02.211Z,1019.55
2022-12-03T08:22:02.220Z,1019.53
2022-12-03T08:23:02.202Z,1019.52
2022-12-03T08:24:02.178Z,1019.56
2022-12-03T08:25:02.191Z,1019.50
2022-12-03T08:26:02.171Z,1019.54
2022-12-03T08:27:09.174Z,1019.55
2022-12-03T08:28:02.138Z,1019.57
2022-12-03T08:29:02.136Z,1019.53
2022-12-03T08:30:02.188Z,1019.54
2022-12-03T08:31:02.116Z,1019.56
2022-12-03T08:32:02.132Z,1019.51
2022-12-03T08:33:02.113Z,1019.48
2022-12-03T08:34:02.081Z,1019.56
2022-12-03T08:35:02.056Z,1019.57
2022-12-03T08:36:02.065Z,1019.53
2022-12-03T08:37:02.026Z,1019.56
2022-12-03T08:38:02.025Z,1019.46
2022-12-03T08:39:02.037Z,1019.49
2022-12-03T08:40:01.987Z,1019.50
2022-12-03T08:41:01.975Z,1019.57
2022-12-03T08:42:01.964Z,1019.55
2022-12-03T08:43:01.939Z,1019.56
2022-12-03T08:44:01.934Z,1019.57
2022-12-03T08:45:01.936Z,1019.49
2022-12-03T08:46:02.017Z,1019.48
2022-12-03T08:47:01.921Z,1019.53
2022-12-03T08:48:01.913Z,1019.52
2022-12-03T08:49:01.884Z,1019.47
2022-12-03T08:50:01.855Z,1019.49
2022-12-03T08:51:01.888Z,1019.50
2022-12-03T08:52:01.843Z,1019.51
2022-12-03T08:53:01.815Z,1019.51
2022-12-03T08:54:02.503Z,1019.49
2022-12-03T08:55:01.806Z,1019.47
2022-12-03T08:56:01.787Z,1019.48
2022-12-03T08:57:01.778Z,1019.52
2022-12-03T08:58:01.782Z,1019.47
2022-12-03T08:59:01.755Z,1019.52
2022-12-03T09:00:01.767Z,1019.48
2022-12-03T09:01:01.790Z,1019.51
2022-12-03T09:02:01.714Z,1019.49
2022-12-03T09:03:01.683Z,1019.51
2022-12-03T09:04:01.817Z,1019.54
2022-12-03T09:05:01.662Z,1019.55
2022-12-03T09:06:01.687Z,1019.52
2022-12-03T09:07:01.634Z,1019.47
2022-12-03T09:08:01.707Z,1019.51
2022-12-03T09:09:06.547Z,1019.45
2022-12-03T09:10:02.624Z,1019.49
2022-12-03T09:11:01.601Z,1019.46
2022-12-03T09:12:01.615Z,1019.49
2022-12-03T09:13:01.574Z,1019.51
2022-12-03T09:14:01.611Z,1019.43
2022-12-03T09:15:01.563Z,1019.49
2022-12-03T09:16:01.555Z,1019.49
2022-12-03T09:17:01.585Z,1019.49
2022-12-03T09:18:01.525Z,1019.50
2022-12-03T09:19:01.482Z,1019.46
2022-12-03T09:20:01.481Z,1019.44
2022-12-03T09:21:01.474Z,1019.40
2022-12-03T09:22:01.480Z,1019.38
2022-12-03T09:23:01.444Z,1019.39
2022-12-03T09:24:01.422Z,1019.39
2022-12-03T09:25:01.405Z,1019.40
2022-12-03T09:26:01.408Z,1019.39
2022-12-03T09:27:01.411Z,1019.37
2022-12-03T09:28:01.425Z,1019.35
2022-12-03T09:29:01.365Z,1019.40
2022-12-03T09:30:01.377Z,1019.30
2022-12-03T09:31:01.336Z,1019.25
2022-12-03T09:32:01.425Z,1019.30
2022-12-03T09:33:01.326Z,1019.37
2022-12-03T09:34:01.293Z,1019.33
2022-12-03T09:35:01.281Z,1019.33
2022-12-03T09:36:01.273Z,1019.26
2022-12-03T09:37:01.328Z,1019.27
2022-12-03T09:38:01.261Z,1019.27
2022-12-03T09:39:01.255Z,1019.27
2022-12-03T09:40:01.221Z,1019.27
2022-12-03T09:41:01.213Z,1019.27
2022-12-03T09:42:01.225Z,1019.28
2022-12-03T09:43:01.192Z,1019.23
2022-12-03T09:44:05.548Z,1019.21
2022-12-03T09:45:01.173Z,1019.21
2022-12-03T09:46:01.195Z,1019.21
2022-12-03T09:47:01.133Z,1019.26
2022-12-03T09:48:01.137Z,1019.31
2022-12-03T09:49:01.117Z,1019.30
2022-12-03T09:50:01.097Z,1019.30
2022-12-03T09:51:01.095Z,1019.32
2022-12-03T09:52:01.130Z,1019.30
2022-12-03T09:53:01.050Z,1019.24
2022-12-03T09:54:01.063Z,1019.29
2022-12-03T09:55:01.043Z,1019.23
2022-12-03T09:56:01.036Z,1019.23
2022-12-03T09:57:01.021Z,1019.21
2022-12-03T09:58:01.008Z,1019.17
2022-12-03T09:59:00.979Z,1019.16
2022-12-03T10:00:00.989Z,1019.18
2022-12-03T10:01:00.977Z,1019.19
2022-12-03T10:02:01.109Z,1019.18
2022-12-03T10:03:00.929Z,1019.12
2022-12-03T10:04:00.987Z,1019.16
2022-12-03T10:05:00.958Z,1019.14
2022-12-03T10:06:00.940Z,1019.10
2022-12-03T10:07:00.873Z,1019.08
2022-12-03T10:08:00.966Z,1019.08
2022-12-03T10:09:00.883Z,1019.11
2022-12-03T10:10:00.873Z,1019.06
2022-12-03T10:11:00.831Z,1019.07
2022-12-03T10:12:00.831Z,1019.06
2022-12-03T10:13:00.822Z,1019.01
2022-12-03T10:14:00.809Z,1019.07
2022-12-03T10:15:00.799Z,1019.08
2022-12-03T10:16:00.771Z,1019.08
2022-12-03T10:17:00.919Z,1019.07
2022-12-03T10:18:00.748Z,1019.00
2022-12-03T10:19:00.732Z,1019.07
2022-12-03T10:20:00.773Z,1019.05
2022-12-03T10:21:00.702Z,1019.07
2022-12-03T10:22:00.719Z,1018.97
2022-12-03T10:23:00.800Z,1019.07
2022-12-03T10:24:00.874Z,1018.97
2022-12-03T10:25:00.651Z,1019.01
2022-12-03T10:26:00.649Z,1018.98
2022-12-03T10:27:00.668Z,1018.92
2022-12-03T10:28:00.672Z,1018.94
2022-12-03T10:29:00.657Z,1018.96
2022-12-03T10:30:00.673Z,1018.96
2022-12-03T10:31:00.658Z,1018.96
2022-12-03T10:32:00.579Z,1018.92
2022-12-03T10:33:00.551Z,1018.88
2022-12-03T10:34:00.560Z,1018.89
2022-12-03T10:35:00.568Z,1018.95
2022-12-03T10:36:00.561Z,1018.96
2022-12-03T10:37:00.516Z,1018.88
2022-12-03T10:38:00.555Z,1018.84
2022-12-03T10:39:00.474Z,1018.82
2022-12-03T10:40:00.516Z,1018.82
2022-12-03T10:41:00.473Z,1018.78
2022-12-03T10:42:00.474Z,1018.79
2022-12-03T10:43:00.492Z,1018.76
2022-12-03T10:44:00.461Z,1018.74
2022-12-03T10:45:00.438Z,1018.72
2022-12-03T10:46:03.774Z,1018.77
2022-12-03T10:47:00.741Z,1018.78
2022-12-03T10:48:00.381Z,1018.80
2022-12-03T10:49:00.384Z,1018.77
2022-12-03T10:50:00.348Z,1018.75
2022-12-03T10:51:00.328Z,1018.79
2022-12-03T10:52:00.343Z,1018.79
2022-12-03T10:53:00.311Z,1018.74
2022-12-03T10:54:00.300Z,1018.76
2022-12-03T10:55:00.306Z,1018.64
2022-12-03T10:56:00.280Z,1018.75
2022-12-03T10:57:00.280Z,1018.75
2022-12-03T10:58:00.283Z,1018.75
2022-12-03T10:59:00.220Z,1018.69
2022-12-03T11:00:00.264Z,1018.76
2022-12-03T11:01:00.277Z,1018.74
2022-12-03T11:02:00.305Z,1018.79
2022-12-03T11:03:00.186Z,1018.73
2022-12-03T11:04:00.272Z,1018.78
2022-12-03T11:05:00.201Z,1018.80
2022-12-03T11:06:00.196Z,1018.70
2022-12-03T11:07:00.297Z,1018.70
2022-12-03T11:08:00.344Z,1018.73
2022-12-03T11:09:03.983Z,1018.73
2022-12-03T11:10:01.101Z,1018.72
2022-12-03T11:11:00.278Z,1018.71
2022-12-03T11:12:00.070Z,1018.67
2022-12-03T11:13:00.073Z,1018.66
2022-12-03T11:14:00.050Z,1018.65
2022-12-03T11:15:00.029Z,1018.64
2022-12-03T11:16:00.073Z,1018.62
2022-12-03T11:17:00.071Z,1018.62
2022-12-03T11:18:00.080Z,1018.69
2022-12-03T11:19:00.009Z,1018.60
2022-12-03T11:20:00.012Z,1018.58
2022-12-03T11:20:59.949Z,1018.62
2022-12-03T11:21:59.941Z,1018.66
2022-12-03T11:22:59.923Z,1018.59
2022-12-03T11:23:59.920Z,1018.59
2022-12-03T11:24:59.910Z,1018.56
2022-12-03T11:25:59.889Z,1018.55
2022-12-03T11:26:59.895Z,1018.57
2022-12-03T11:27:59.877Z,1018.48
2022-12-03T11:28:59.870Z,1018.47
2022-12-03T11:29:59.860Z,1018.53
2022-12-03T11:30:59.884Z,1018.48
2022-12-03T11:31:59.860Z,1018.48
2022-12-03T11:32:59.912Z,1018.51
2022-12-03T11:33:59.788Z,1018.44
2022-12-03T11:34:59.769Z,1018.42
2022-12-03T11:35:59.770Z,1018.45
2022-12-03T11:37:01.895Z,1018.44
2022-12-03T11:37:59.757Z,1018.41
2022-12-03T11:38:59.710Z,1018.35
2022-12-03T11:39:59.774Z,1018.43
2022-12-03T11:40:59.817Z,1018.39
2022-12-03T11:41:59.690Z,1018.33
2022-12-03T11:42:59.782Z,1018.32
2022-12-03T11:43:59.666Z,1018.31
2022-12-03T11:44:59.638Z,1018.39
2022-12-03T11:46:04.108Z,1018.37
2022-12-03T11:46:59.680Z,1018.36
2022-12-03T11:47:59.613Z,1018.34
2022-12-03T11:48:59.587Z,1018.34
2022-12-03T11:49:59.598Z,1018.28
2022-12-03T11:50:59.569Z,1018.31
2022-12-03T11:51:59.559Z,1018.30
2022-12-03T11:52:59.578Z,1018.35
2022-12-03T11:53:59.535Z,1018.28
2022-12-03T11:54:59.729Z,1018.31
2022-12-03T11:56:04.151Z,1018.28
2022-12-03T11:57:00.558Z,1018.28
2022-12-03T11:57:59.496Z,1018.28
2022-12-03T11:58:59.456Z,1018.26
2022-12-03T11:59:59.488Z,1018.24
2022-12-03T12:00:59.448Z,1018.26
2022-12-03T12:01:59.419Z,1018.26
2022-12-03T12:02:59.461Z,1018.31
2022-12-03T12:03:59.449Z,1018.35
2022-12-03T12:04:59.387Z,1018.33